createdAt,value
2023-02-25T00:00:26.715Z,1051
2023-02-25T00:01:39.490Z,1054
2023-02-25T00:02:43.306Z,1054
2023-02-25T00:03:56.073Z,1054
2023-02-25T00:05:09.728Z,1056
2023-02-25T00:06:12.505Z,1056
2023-02-25T00:07:26.204Z,1057
2023-02-25T00:08:38.957Z,1055
2023-02-25T00:09:52.723Z,1056
2023-02-25T00:10:55.556Z,1057
2023-02-25T00:12:09.207Z,1056
2023-02-25T00:13:21.952Z,1057
2023-02-25T00:14:25.712Z,1056
2023-02-25T00:15:38.468Z,1055
2023-02-25T00:16:52.282Z,1056
2023-02-25T00:17:55.191Z,1054
2023-02-25T00:19:08.744Z,1056
2023-02-25T00:20:21.604Z,1057
2023-02-25T00:21:25.720Z,1058
2023-02-25T00:22:38.601Z,1057
2023-02-25T00:23:52.232Z,1056
2023-02-25T00:24:55.020Z,1055
2023-02-25T00:26:08.750Z,1056
2023-02-25T00:27:21.558Z,1057
2023-02-25T00:28:35.262Z,1057
2023-02-25T00:29:38.073Z,1057
2023-02-25T00:30:51.808Z,1054
2023-02-25T00:32:04.877Z,1052
2023-02-25T00:33:08.724Z,1054
2023-02-25T00:34:21.480Z,1054
2023-02-25T00:35:35.222Z,1054
2023-02-25T00:36:38.017Z,1055
2023-02-25T00:37:51.730Z,1054
2023-02-25T00:39:04.533Z,1054
2023-02-25T00:40:08.210Z,1052
2023-02-25T00:41:20.956Z,1049
2023-02-25T00:42:34.754Z,1046
2023-02-25T00:43:37.577Z,1045
2023-02-25T00:45:10.721Z,1045
2023-02-25T00:46:03.624Z,1046
2023-02-25T00:47:17.208Z,1049
2023-02-25T00:48:20.014Z,1049
2023-02-25T00:49:33.734Z,1048
2023-02-25T00:50:46.489Z,1048
2023-02-25T00:51:50.227Z,1048
2023-02-25T00:53:02.975Z,1048
2023-02-25T00:54:16.732Z,1046
2023-02-25T00:55:19.512Z,1045
2023-02-25T00:56:53.226Z,1046
2023-02-25T00:57:46.074Z,1046
2023-02-25T00:58:59.762Z,1046
2023-02-25T01:00:02.549Z,1042
2023-02-25T01:01:16.267Z,1039
2023-02-25T01:02:29.064Z,1038
2023-02-25T01:03:32.723Z,1036
2023-02-25T01:04:45.532Z,1033
2023-02-25T01:05:59.238Z,1034
2023-02-25T01:07:03.683Z,1035
2023-02-25T01:08:17.750Z,1035
2023-02-25T01:09:30.531Z,1036
2023-02-25T01:10:34.235Z,1035
2023-02-25T01:11:46.977Z,1036
2023-02-25T01:13:00.746Z,1036
2023-02-25T01:14:03.596Z,1036
2023-02-25T01:15:17.247Z,1035
2023-02-25T01:16:30.059Z,1030
2023-02-25T01:17:33.758Z,1030
2023-02-25T01:18:46.696Z,1030
2023-02-25T01:20:00.283Z,1027
2023-02-25T01:21:13.012Z,1026
2023-02-25T01:22:16.716Z,1027
2023-02-25T01:23:29.590Z,1027
2023-02-25T01:24:43.250Z,1031
2023-02-25T01:25:46.059Z,1029
2023-02-25T01:26:59.762Z,1030
2023-02-25T01:28:12.522Z,1031
2023-02-25T01:29:16.236Z,1028
2023-02-25T01:30:29.003Z,1027
2023-02-25T01:31:42.901Z,1029
2023-02-25T01:32:46.777Z,1028
2023-02-25T01:34:00.252Z,1027
2023-02-25T01:35:13.392Z,1027
2023-02-25T01:36:17.216Z,1029
2023-02-25T01:37:30.029Z,1029
2023-02-25T01:38:43.757Z,1029
2023-02-25T01:39:46.542Z,1028
2023-02-25T01:41:00.221Z,1029
2023-02-25T01:42:13.143Z,1027
2023-02-25T01:43:26.761Z,1024
2023-02-25T01:44:29.636Z,1025
2023-02-25T01:45:43.256Z,1026
2023-02-25T01:46:56.098Z,1025
2023-02-25T01:47:59.780Z,1024
2023-02-25T01:49:12.577Z,1026
2023-02-25T01:50:26.245Z,1025
2023-02-25T01:51:29.405Z,1023
2023-02-25T01:52:42.729Z,1023
2023-02-25T01:53:55.507Z,1023
2023-02-25T01:55:09.232Z,1021
2023-02-25T01:56:12.029Z,1019
2023-02-25T01:57:35.271Z,1017
2023-02-25T01:58:38.044Z,1016
2023-02-25T01:59:41.915Z,1014
2023-02-25T02:00:54.687Z,1014
2023-02-25T02:02:08.265Z,1012
2023-02-25T02:03:11.062Z,1010
2023-02-25T02:04:26.577Z,1009
2023-02-25T02:05:30.244Z,1005
2023-02-25T02:06:53.760Z,1002
2023-02-25T02:07:56.549Z,1002
2023-02-25T02:09:10.233Z,1001
2023-02-25T02:10:13.070Z,1000
2023-02-25T02:11:26.788Z,999
2023-02-25T02:12:39.554Z,998
2023-02-25T02:13:43.243Z,999
2023-02-25T02:14:55.989Z,999
2023-02-25T02:16:09.778Z,999
2023-02-25T02:17:12.873Z,1001
2023-02-25T02:18:26.257Z,1002
2023-02-25T02:19:39.063Z,1001
2023-02-25T02:20:42.770Z,1002
2023-02-25T02:21:55.586Z,1000
2023-02-25T02:23:09.246Z,1002
2023-02-25T02:24:12.053Z,1000
2023-02-25T02:25:25.748Z,1001
2023-02-25T02:26:38.504Z,1004
2023-02-25T02:27:52.266Z,1002
2023-02-25T02:28:55.222Z,1002
2023-02-25T02:30:08.801Z,1001
2023-02-25T02:31:21.962Z,998
2023-02-25T02:32:25.953Z,998
2023-02-25T02:33:38.765Z,997
2023-02-25T02:34:52.252Z,997
2023-02-25T02:35:55.084Z,995
2023-02-25T02:37:08.816Z,991
2023-02-25T02:38:21.581Z,990
2023-02-25T02:39:25.400Z,990
2023-02-25T02:40:38.161Z,989
2023-02-25T02:41:51.772Z,989
2023-02-25T02:42:55.663Z,987
2023-02-25T02:44:10.766Z,987
2023-02-25T02:45:23.577Z,985
2023-02-25T02:46:27.286Z,984
2023-02-25T02:47:40.048Z,985
2023-02-25T02:48:53.745Z,982
2023-02-25T02:49:56.536Z,982
2023-02-25T02:51:10.275Z,982
2023-02-25T02:52:23.124Z,983
2023-02-25T02:53:26.783Z,981
2023-02-25T02:54:39.548Z,981
2023-02-25T02:55:53.253Z,982
2023-02-25T02:56:56.067Z,984
2023-02-25T02:58:09.770Z,978
2023-02-25T02:59:22.592Z,977
2023-02-25T03:00:26.300Z,976
2023-02-25T03:01:39.128Z,971
2023-02-25T03:02:52.771Z,970
2023-02-25T03:03:55.710Z,971
2023-02-25T03:05:09.240Z,971
2023-02-25T03:06:22.540Z,971
2023-02-25T03:07:36.298Z,971
2023-02-25T03:08:39.114Z,971
2023-02-25T03:09:52.788Z,972
2023-02-25T03:11:05.638Z,973
2023-02-25T03:12:09.242Z,971
2023-02-25T03:13:22.013Z,969
2023-02-25T03:14:35.799Z,967
2023-02-25T03:15:38.589Z,968
2023-02-25T03:16:52.349Z,967
2023-02-25T03:18:05.199Z,966
2023-02-25T03:19:08.785Z,963
2023-02-25T03:20:21.571Z,964
2023-02-25T03:21:35.285Z,963
2023-02-25T03:22:48.030Z,961
2023-02-25T03:23:51.763Z,963
2023-02-25T03:25:04.616Z,962
2023-02-25T03:26:18.261Z,959
2023-02-25T03:27:21.085Z,959
2023-02-25T03:28:34.764Z,958
2023-02-25T03:29:47.507Z,958
2023-02-25T03:30:51.362Z,956
2023-02-25T03:32:04.244Z,955
2023-02-25T03:33:17.763Z,955
2023-02-25T03:34:20.592Z,955
2023-02-25T03:35:34.264Z,956
2023-02-25T03:36:47.014Z,954
2023-02-25T03:38:00.288Z,955
2023-02-25T03:39:03.089Z,954
2023-02-25T03:40:16.797Z,953
2023-02-25T03:41:29.543Z,951
2023-02-25T03:42:33.273Z,951
2023-02-25T03:43:46.042Z,951
2023-02-25T03:44:59.766Z,953
2023-02-25T03:46:02.628Z,954
2023-02-25T03:47:16.780Z,951
2023-02-25T03:48:29.569Z,950
2023-02-25T03:49:33.313Z,948
2023-02-25T03:50:46.059Z,947
2023-02-25T03:52:19.783Z,945
2023-02-25T03:53:02.653Z,942
2023-02-25T03:54:15.457Z,941
2023-02-25T03:55:28.821Z,942
2023-02-25T03:56:31.792Z,944
2023-02-25T03:57:55.275Z,942
2023-02-25T03:58:58.112Z,940
2023-02-25T04:00:11.770Z,938
2023-02-25T04:01:16.958Z,938
2023-02-25T04:02:30.883Z,939
2023-02-25T04:03:33.714Z,936
2023-02-25T04:04:47.337Z,936
2023-02-25T04:06:00.166Z,934
2023-02-25T04:07:03.765Z,932
2023-02-25T04:08:16.506Z,931
2023-02-25T04:09:39.801Z,931
2023-02-25T04:10:42.591Z,930
2023-02-25T04:11:46.288Z,927
2023-02-25T04:12:59.020Z,927
2023-02-25T04:14:12.773Z,925
2023-02-25T04:15:15.567Z,925
2023-02-25T04:16:58.812Z,923
2023-02-25T04:17:41.697Z,922
2023-02-25T04:18:54.423Z,923
2023-02-25T04:19:57.799Z,922
2023-02-25T04:21:10.519Z,919
2023-02-25T04:22:24.298Z,920
2023-02-25T04:23:27.060Z,919
2023-02-25T04:24:40.769Z,920
2023-02-25T04:25:53.510Z,919
2023-02-25T04:27:07.297Z,916
2023-02-25T04:28:10.152Z,916
2023-02-25T04:29:23.811Z,914
2023-02-25T04:30:36.607Z,916
2023-02-25T04:31:40.404Z,920
2023-02-25T04:32:53.241Z,918
2023-02-25T04:34:06.791Z,917
2023-02-25T04:35:09.397Z,917
2023-02-25T04:36:23.021Z,915
2023-02-25T04:37:36.122Z,912
2023-02-25T04:38:39.820Z,910
2023-02-25T04:39:52.549Z,907
2023-02-25T04:41:06.288Z,905
2023-02-25T04:42:19.009Z,904
2023-02-25T04:43:23.797Z,904
2023-02-25T04:44:36.580Z,906
2023-02-25T04:45:50.278Z,905
2023-02-25T04:46:53.234Z,906
2023-02-25T04:48:07.300Z,906
2023-02-25T04:49:20.047Z,905
2023-02-25T04:51:51.277Z,904
2023-02-25T04:52:44.106Z,902
2023-02-25T04:53:57.832Z,899
2023-02-25T04:55:20.498Z,897
2023-02-25T04:56:33.793Z,896
2023-02-25T04:57:26.631Z,894
2023-02-25T04:58:40.291Z,895
2023-02-25T04:59:43.067Z,895
2023-02-25T05:00:56.791Z,895
2023-02-25T05:02:09.563Z,895
2023-02-25T05:03:43.316Z,891
2023-02-25T05:04:26.203Z,890
2023-02-25T05:05:38.933Z,889
2023-02-25T05:06:52.589Z,886
2023-02-25T05:07:55.363Z,885
2023-02-25T05:09:10.380Z,884
2023-02-25T05:10:23.292Z,885
2023-02-25T05:11:26.814Z,884
2023-02-25T05:12:39.560Z,885
2023-02-25T05:13:53.326Z,884
2023-02-25T05:14:56.141Z,883
2023-02-25T05:16:09.826Z,882
2023-02-25T05:17:22.689Z,881
2023-02-25T05:18:26.310Z,881
2023-02-25T05:19:39.067Z,878
2023-02-25T05:20:52.820Z,878
2023-02-25T05:22:05.594Z,876
2023-02-25T05:23:09.291Z,874
2023-02-25T05:24:22.044Z,873
2023-02-25T05:25:36.341Z,873
2023-02-25T05:26:39.137Z,875
2023-02-25T05:27:53.281Z,872
2023-02-25T05:29:06.035Z,872
2023-02-25T05:30:09.814Z,870
2023-02-25T05:31:22.640Z,868
2023-02-25T05:32:36.917Z,867
2023-02-25T05:33:39.851Z,866
2023-02-25T05:34:53.401Z,864
2023-02-25T05:36:06.150Z,865
2023-02-25T05:37:09.802Z,866
2023-02-25T05:38:22.589Z,864
2023-02-25T05:39:36.332Z,863
2023-02-25T05:40:39.111Z,864
2023-02-25T05:41:52.832Z,863
2023-02-25T05:43:05.641Z,863
2023-02-25T05:44:19.311Z,862
2023-02-25T05:45:22.097Z,859
2023-02-25T05:46:35.868Z,857
2023-02-25T05:47:48.707Z,855
2023-02-25T05:48:52.309Z,856
2023-02-25T05:50:05.065Z,855
2023-02-25T05:51:18.816Z,853
2023-02-25T05:52:21.761Z,852
2023-02-25T05:53:35.325Z,850
2023-02-25T05:54:48.084Z,850
2023-02-25T05:56:21.474Z,852
2023-02-25T05:57:14.473Z,853
2023-02-25T05:58:17.315Z,852
2023-02-25T05:59:32.314Z,852
2023-02-25T06:00:35.235Z,855
2023-02-25T06:01:48.908Z,853
2023-02-25T06:03:01.830Z,852
2023-02-25T06:04:05.307Z,850
2023-02-25T06:05:18.051Z,849
2023-02-25T06:06:31.832Z,845
2023-02-25T06:07:34.671Z,844
2023-02-25T06:08:48.347Z,847
2023-02-25T06:10:01.477Z,845
2023-02-25T06:11:14.840Z,845
2023-02-25T06:12:17.689Z,846
2023-02-25T06:13:31.294Z,849
2023-02-25T06:14:44.051Z,850
2023-02-25T06:15:48.341Z,851
2023-02-25T06:17:01.100Z,850
2023-02-25T06:18:14.814Z,847
2023-02-25T06:19:17.592Z,848
2023-02-25T06:20:31.307Z,847
2023-02-25T06:21:42.093Z,848
2023-02-25T06:22:55.846Z,847
2023-02-25T06:23:58.643Z,848
2023-02-25T06:25:12.351Z,850
2023-02-25T06:26:25.342Z,852
2023-02-25T06:27:29.382Z,859
2023-02-25T06:28:42.225Z,865
2023-02-25T06:29:56.088Z,883
2023-02-25T06:30:59.495Z,884
2023-02-25T06:32:13.968Z,917
2023-02-25T06:33:26.950Z,955
2023-02-25T06:34:30.349Z,969
2023-02-25T06:35:43.138Z,982
2023-02-25T06:36:56.867Z,984
2023-02-25T06:37:59.669Z,991
2023-02-25T06:39:13.325Z,1001
2023-02-25T06:40:26.134Z,1009
2023-02-25T06:41:39.877Z,1013
2023-02-25T06:42:52.605Z,1019
2023-02-25T06:43:56.336Z,1025
2023-02-25T06:45:09.113Z,1035
2023-02-25T06:46:12.927Z,1045
2023-02-25T06:47:25.815Z,1072
2023-02-25T06:48:39.340Z,1126
2023-02-25T06:49:42.132Z,1167
2023-02-25T06:50:55.833Z,1182
2023-02-25T06:52:08.844Z,1194
2023-02-25T06:53:31.850Z,1209
2023-02-25T06:54:24.698Z,1221
2023-02-25T06:55:38.337Z,1228
2023-02-25T06:56:51.081Z,1238
2023-02-25T06:57:56.344Z,1252
2023-02-25T06:59:09.094Z,1268
2023-02-25T07:00:22.856Z,1282
2023-02-25T07:01:25.669Z,1299
2023-02-25T07:02:39.368Z,1311
2023-02-25T07:03:52.061Z,1321
2023-02-25T07:04:55.926Z,1323
2023-02-25T07:06:08.849Z,1332
2023-02-25T07:07:22.359Z,1342
2023-02-25T07:08:25.158Z,1351
2023-02-25T07:09:38.351Z,1355
2023-02-25T07:10:50.948Z,1359
2023-02-25T07:11:55.833Z,1363
2023-02-25T07:13:08.430Z,1367
2023-02-25T07:14:21.864Z,1370
2023-02-25T07:15:24.477Z,1375
2023-02-25T07:16:38.340Z,1376
2023-02-25T07:17:51.006Z,1377
2023-02-25T07:19:04.340Z,1378
2023-02-25T07:20:06.914Z,1378
2023-02-25T07:21:20.417Z,1378
2023-02-25T07:22:32.992Z,1381
2023-02-25T07:23:36.329Z,1379
2023-02-25T07:25:08.500Z,1382
2023-02-25T07:26:01.845Z,1386
2023-02-25T07:27:14.335Z,1384
2023-02-25T07:28:17.993Z,1381
2023-02-25T07:29:30.474Z,1379
2023-02-25T07:30:44.720Z,1382
2023-02-25T07:31:48.322Z,1387
2023-02-25T07:33:03.074Z,1389
2023-02-25T07:34:05.777Z,1387
2023-02-25T07:35:39.031Z,1387
2023-02-25T07:36:31.618Z,1390
2023-02-25T07:37:34.151Z,1391
2023-02-25T07:38:47.346Z,1392
2023-02-25T07:39:59.836Z,1394
2023-02-25T07:41:12.882Z,1396
2023-02-25T07:42:15.446Z,1396
2023-02-25T07:43:28.884Z,1394
2023-02-25T07:44:41.292Z,1397
2023-02-25T07:45:44.381Z,1398
2023-02-25T07:46:56.902Z,1400
2023-02-25T07:48:29.891Z,1400
2023-02-25T07:49:22.500Z,1401
2023-02-25T07:50:25.035Z,1401
2023-02-25T07:51:38.370Z,1404
2023-02-25T07:52:50.911Z,1403
2023-02-25T07:54:04.373Z,1399
2023-02-25T07:55:06.856Z,1389
2023-02-25T07:56:19.886Z,1371
2023-02-25T07:57:32.320Z,1325
2023-02-25T07:58:35.922Z,1184
2023-02-25T07:59:48.311Z,1038
2023-02-25T08:01:01.885Z,989
2023-02-25T08:02:04.376Z,967
2023-02-25T08:03:17.392Z,965
2023-02-25T08:04:29.862Z,950
2023-02-25T08:05:43.365Z,952
2023-02-25T08:06:45.846Z,943
2023-02-25T08:07:58.868Z,932
2023-02-25T08:09:11.292Z,928
2023-02-25T08:10:24.421Z,915
2023-02-25T08:11:27.071Z,905
2023-02-25T08:12:40.408Z,900
2023-02-25T08:13:52.820Z,892
2023-02-25T08:14:56.369Z,883
2023-02-25T08:16:08.818Z,882
2023-02-25T08:17:22.349Z,865
2023-02-25T08:18:24.891Z,861
2023-02-25T08:19:37.873Z,854
2023-02-25T08:20:50.352Z,850
2023-02-25T08:22:03.403Z,850
2023-02-25T08:23:05.979Z,850
2023-02-25T08:24:19.402Z,857
2023-02-25T08:25:41.717Z,864
2023-02-25T08:26:44.877Z,873
2023-02-25T08:27:47.412Z,877
2023-02-25T08:29:00.389Z,886
2023-02-25T08:30:12.740Z,892
2023-02-25T08:31:15.963Z,904
2023-02-25T08:32:28.733Z,914
2023-02-25T08:33:42.366Z,925
2023-02-25T08:34:46.688Z,943
2023-02-25T08:36:01.871Z,972
2023-02-25T08:37:14.452Z,1005
2023-02-25T08:38:17.875Z,1018
2023-02-25T08:39:30.212Z,1013
2023-02-25T08:40:43.381Z,1032
2023-02-25T08:41:45.833Z,1032
2023-02-25T08:42:58.883Z,1029
2023-02-25T08:44:11.234Z,1028
2023-02-25T08:45:24.370Z,1032
2023-02-25T08:46:26.953Z,1029
2023-02-25T08:47:40.416Z,1024
2023-02-25T08:48:52.863Z,1019
2023-02-25T08:49:56.386Z,1011
2023-02-25T08:51:08.910Z,1004
2023-02-25T08:52:22.392Z,998
2023-02-25T08:53:24.814Z,994
2023-02-25T08:54:37.866Z,988
2023-02-25T08:56:09.901Z,982
2023-02-25T08:57:03.421Z,974
2023-02-25T08:58:05.908Z,968
2023-02-25T08:59:18.856Z,966
2023-02-25T09:00:31.189Z,959
2023-02-25T09:01:34.381Z,952
2023-02-25T09:02:46.702Z,944
2023-02-25T09:03:59.960Z,937
2023-02-25T09:05:12.429Z,934
2023-02-25T09:06:15.905Z,924
2023-02-25T09:07:28.390Z,918
2023-02-25T09:08:41.398Z,913
2023-02-25T09:09:43.831Z,910
2023-02-25T09:10:56.867Z,907
2023-02-25T09:12:09.191Z,908
2023-02-25T09:13:22.410Z,908
2023-02-25T09:14:24.836Z,900
2023-02-25T09:15:38.907Z,890
2023-02-25T09:16:51.346Z,878
2023-02-25T09:17:54.874Z,863
2023-02-25T09:19:07.196Z,858
2023-02-25T09:20:20.406Z,847
2023-02-25T09:21:23.266Z,844
2023-02-25T09:22:36.913Z,843
2023-02-25T09:23:49.307Z,848
2023-02-25T09:25:21.904Z,853
2023-02-25T09:26:04.568Z,845
2023-02-25T09:27:16.896Z,847
2023-02-25T09:28:29.885Z,841
2023-02-25T09:29:32.326Z,839
2023-02-25T09:30:45.444Z,833
2023-02-25T09:31:58.002Z,832
2023-02-25T09:33:11.438Z,829
2023-02-25T09:34:53.293Z,827
2023-02-25T09:35:26.903Z,824
2023-02-25T09:36:39.276Z,823
2023-02-25T09:37:51.892Z,823
2023-02-25T09:38:54.301Z,824
2023-02-25T09:40:07.385Z,823
2023-02-25T09:41:19.771Z,820
2023-02-25T09:42:23.429Z,817
2023-02-25T09:43:35.761Z,814
2023-02-25T09:44:51.419Z,812
2023-02-25T09:45:53.967Z,810
2023-02-25T09:47:17.474Z,808
2023-02-25T09:48:20.126Z,804
2023-02-25T09:49:23.966Z,803
2023-02-25T09:50:36.297Z,803
2023-02-25T09:51:49.410Z,801
2023-02-25T09:52:51.838Z,799
2023-02-25T09:54:06.395Z,798
2023-02-25T09:55:20.517Z,795
2023-02-25T09:56:23.909Z,792
2023-02-25T09:57:36.407Z,791
2023-02-25T09:58:49.418Z,789
2023-02-25T09:59:51.939Z,788
2023-02-25T10:01:04.913Z,784
2023-02-25T10:02:17.398Z,778
2023-02-25T10:03:30.994Z,771
2023-02-25T10:04:33.566Z,764
2023-02-25T10:05:46.924Z,762
2023-02-25T10:06:59.268Z,755
2023-02-25T10:08:03.919Z,756
2023-02-25T10:09:16.262Z,753
2023-02-25T10:10:29.397Z,750
2023-02-25T10:11:31.826Z,748
2023-02-25T10:12:44.906Z,742
2023-02-25T10:13:57.293Z,738
2023-02-25T10:15:10.405Z,735
2023-02-25T10:16:12.920Z,731
2023-02-25T10:17:25.905Z,728
2023-02-25T10:18:38.907Z,729
2023-02-25T10:19:41.983Z,729
2023-02-25T10:20:54.294Z,726
2023-02-25T10:22:08.021Z,723
2023-02-25T10:23:10.581Z,724
2023-02-25T10:24:23.998Z,723
2023-02-25T10:25:36.387Z,722
2023-02-25T10:27:08.963Z,722
2023-02-25T10:27:51.606Z,720
2023-02-25T10:29:04.067Z,721
2023-02-25T10:30:17.406Z,719
2023-02-25T10:31:19.994Z,721
2023-02-25T10:32:42.989Z,719
2023-02-25T10:33:46.759Z,719
2023-02-25T10:34:59.912Z,718
2023-02-25T10:36:02.372Z,721
2023-02-25T10:37:15.399Z,724
2023-02-25T10:38:27.687Z,727
2023-02-25T10:39:31.718Z,728
2023-02-25T10:40:46.304Z,729
2023-02-25T10:41:59.720Z,733
2023-02-25T10:43:03.812Z,736
2023-02-25T10:44:17.271Z,739
2023-02-25T10:45:19.660Z,739
2023-02-25T10:46:32.997Z,740
2023-02-25T10:47:45.413Z,742
2023-02-25T10:48:58.976Z,744
2023-02-25T10:50:01.644Z,745
2023-02-25T10:51:16.187Z,746
2023-02-25T10:52:28.484Z,748
2023-02-25T10:53:31.417Z,750
2023-02-25T10:54:43.653Z,747
2023-02-25T10:55:56.967Z,746
2023-02-25T10:57:18.805Z,743
2023-02-25T10:58:11.936Z,743
2023-02-25T10:59:24.141Z,742
2023-02-25T11:00:37.405Z,741
2023-02-25T11:01:39.900Z,744
2023-02-25T11:02:53.019Z,741
2023-02-25T11:04:05.433Z,741
2023-02-25T11:05:18.556Z,742
2023-02-25T11:06:23.122Z,744
2023-02-25T11:07:55.971Z,742
2023-02-25T11:08:38.760Z,741
2023-02-25T11:09:51.165Z,740
2023-02-25T11:11:05.983Z,740
2023-02-25T11:12:18.197Z,740
2023-02-25T11:13:21.921Z,741
2023-02-25T11:14:34.220Z,741
2023-02-25T11:15:47.498Z,742
2023-02-25T11:16:49.898Z,742
2023-02-25T11:18:02.957Z,741
2023-02-25T11:19:15.237Z,744
2023-02-25T11:20:28.441Z,744
2023-02-25T11:21:50.198Z,742
2023-02-25T11:22:43.526Z,744
2023-02-25T11:23:55.895Z,745
2023-02-25T11:25:08.959Z,746
2023-02-25T11:26:30.708Z,749
2023-02-25T11:27:53.512Z,751
2023-02-25T11:28:46.008Z,753
2023-02-25T11:29:38.694Z,757
2023-02-25T11:30:52.078Z,761
2023-02-25T11:32:04.813Z,763
2023-02-25T11:33:17.951Z,769
2023-02-25T11:34:20.386Z,768
2023-02-25T11:35:33.924Z,772
2023-02-25T11:36:48.147Z,774
2023-02-25T11:37:54.472Z,772
2023-02-25T11:39:06.811Z,770
2023-02-25T11:40:10.686Z,773
2023-02-25T11:41:23.592Z,775
2023-02-25T11:42:36.935Z,773
2023-02-25T11:43:39.319Z,775
2023-02-25T11:44:52.501Z,771
2023-02-25T11:46:04.979Z,769
2023-02-25T11:47:17.967Z,771
2023-02-25T11:49:00.203Z,772
2023-02-25T11:49:33.988Z,774
2023-02-25T11:50:46.241Z,774
2023-02-25T11:51:49.463Z,777
2023-02-25T11:53:01.775Z,775
2023-02-25T11:54:14.963Z,776
2023-02-25T11:55:27.356Z,778
2023-02-25T11:56:30.456Z,779
2023-02-25T11:57:42.886Z,781
2023-02-25T11:58:55.951Z,780
2023-02-25T11:59:58.300Z,779
2023-02-25T12:01:12.375Z,781
2023-02-25T12:02:24.900Z,781
2023-02-25T12:03:37.953Z,784
2023-02-25T12:04:40.259Z,785
2023-02-25T12:05:53.532Z,787
2023-02-25T12:07:05.848Z,787
2023-02-25T12:08:14.050Z,789
2023-02-25T12:09:26.627Z,789
2023-02-25T12:10:29.954Z,789
2023-02-25T12:11:42.180Z,791
2023-02-25T12:12:54.991Z,792
2023-02-25T12:14:07.246Z,794
2023-02-25T12:15:10.472Z,796
2023-02-25T12:16:23.118Z,799
2023-02-25T12:17:36.507Z,800
2023-02-25T12:18:38.844Z,798
2023-02-25T12:19:51.990Z,800
2023-02-25T12:21:04.164Z,802
2023-02-25T12:22:16.985Z,805
2023-02-25T12:23:19.295Z,809
2023-02-25T12:24:32.471Z,812
2023-02-25T12:25:44.738Z,816
2023-02-25T12:26:48.001Z,818
2023-02-25T12:28:00.224Z,819
2023-02-25T12:29:13.679Z,819
2023-02-25T12:30:26.049Z,816
2023-02-25T12:31:29.516Z,819
2023-02-25T12:32:41.883Z,819
2023-02-25T12:33:54.991Z,821
2023-02-25T12:34:57.369Z,822
2023-02-25T12:36:10.504Z,824
2023-02-25T12:37:22.706Z,826
2023-02-25T12:38:35.971Z,826
2023-02-25T12:39:38.273Z,824
2023-02-25T12:40:51.483Z,824
2023-02-25T12:42:03.733Z,824
2023-02-25T12:43:06.967Z,826
2023-02-25T12:44:19.209Z,824
2023-02-25T12:45:32.038Z,824
2023-02-25T12:46:44.249Z,823
2023-02-25T12:47:47.483Z,822
2023-02-25T12:48:59.703Z,823
2023-02-25T12:50:13.003Z,823
2023-02-25T12:51:15.361Z,827
2023-02-25T12:52:28.520Z,829
2023-02-25T12:53:40.715Z,830
2023-02-25T12:54:53.487Z,831
2023-02-25T12:55:55.759Z,832
2023-02-25T12:57:08.642Z,838
2023-02-25T12:58:20.949Z,838
2023-02-25T12:59:34.056Z,839
2023-02-25T13:00:36.423Z,842
2023-02-25T13:01:58.976Z,845
2023-02-25T13:03:01.235Z,845
2023-02-25T13:04:14.133Z,845
2023-02-25T13:05:16.547Z,847
2023-02-25T13:06:29.495Z,847
2023-02-25T13:07:41.627Z,848
2023-02-25T13:08:55.006Z,848
2023-02-25T13:09:57.268Z,848
2023-02-25T13:11:09.996Z,848
2023-02-25T13:12:22.125Z,845
2023-02-25T13:13:25.019Z,847
2023-02-25T13:14:37.203Z,849
2023-02-25T13:15:50.587Z,852
2023-02-25T13:16:53.806Z,854
2023-02-25T13:18:07.028Z,857
2023-02-25T13:19:19.201Z,858
2023-02-25T13:20:31.996Z,859
2023-02-25T13:21:34.254Z,861
2023-02-25T13:22:47.011Z,862
2023-02-25T13:23:59.184Z,861
2023-02-25T13:25:12.019Z,861
2023-02-25T13:26:14.269Z,861
2023-02-25T13:27:27.011Z,865
2023-02-25T13:28:58.933Z,866
2023-02-25T13:29:51.991Z,865
2023-02-25T13:30:54.210Z,865
2023-02-25T13:32:07.083Z,864
2023-02-25T13:33:19.379Z,862
2023-02-25T13:34:22.511Z,862
2023-02-25T13:35:34.648Z,863
2023-02-25T13:36:47.517Z,863
2023-02-25T13:37:59.662Z,867
2023-02-25T13:39:02.519Z,866
2023-02-25T13:40:14.674Z,862
2023-02-25T13:41:27.497Z,864
2023-02-25T13:42:29.760Z,861
2023-02-25T13:43:42.523Z,861
2023-02-25T13:44:54.654Z,861
2023-02-25T13:46:07.549Z,860
2023-02-25T13:47:09.816Z,859
2023-02-25T13:48:22.507Z,856
2023-02-25T13:49:34.706Z,857
2023-02-25T13:50:47.713Z,858
2023-02-25T13:51:49.932Z,860
2023-02-25T13:53:03.004Z,861
2023-02-25T13:54:34.636Z,863
2023-02-25T13:55:27.998Z,864
2023-02-25T13:56:30.168Z,864
2023-02-25T13:57:43.046Z,865
2023-02-25T13:58:55.139Z,864
2023-02-25T13:59:58.145Z,866
2023-02-25T14:01:10.299Z,865
2023-02-25T14:02:23.045Z,866
2023-02-25T14:03:25.299Z,868
2023-02-25T14:04:38.033Z,868
2023-02-25T14:05:50.028Z,866
2023-02-25T14:07:03.085Z,866
2023-02-25T14:08:05.234Z,867
2023-02-25T14:09:18.036Z,866
2023-02-25T14:10:30.099Z,868
2023-02-25T14:11:43.609Z,865
2023-02-25T14:12:45.985Z,867
2023-02-25T14:13:59.028Z,866
2023-02-25T14:15:11.016Z,867
2023-02-25T14:16:14.157Z,867
2023-02-25T14:17:26.205Z,873
2023-02-25T14:18:48.514Z,874
2023-02-25T14:19:40.871Z,873
2023-02-25T14:20:53.543Z,873
2023-02-25T14:22:06.564Z,871
2023-02-25T14:23:19.556Z,873
2023-02-25T14:24:21.679Z,873
2023-02-25T14:25:34.636Z,872
2023-02-25T14:26:46.644Z,871
2023-02-25T14:27:59.545Z,872
2023-02-25T14:29:01.718Z,873
2023-02-25T14:30:14.516Z,872
2023-02-25T14:31:26.994Z,872
2023-02-25T14:32:30.096Z,870
2023-02-25T14:33:42.143Z,871
2023-02-25T14:34:55.049Z,873
2023-02-25T14:36:26.539Z,872
2023-02-25T14:37:09.543Z,873
2023-02-25T14:38:21.555Z,872
2023-02-25T14:39:34.521Z,873
2023-02-25T14:40:36.656Z,872
2023-02-25T14:41:49.538Z,872
2023-02-25T14:43:02.113Z,869
2023-02-25T14:44:15.026Z,871
2023-02-25T14:45:17.676Z,873
2023-02-25T14:46:30.647Z,872
2023-02-25T14:47:42.716Z,872
2023-02-25T14:48:45.540Z,872
2023-02-25T14:49:57.532Z,871
2023-02-25T14:51:10.637Z,869
2023-02-25T14:52:22.622Z,869
2023-02-25T14:53:25.548Z,868
2023-02-25T14:54:37.535Z,868
2023-02-25T14:55:50.606Z,864
2023-02-25T14:56:52.758Z,861
2023-02-25T14:58:05.546Z,858
2023-02-25T14:59:17.538Z,855
2023-02-25T15:00:30.536Z,858
2023-02-25T15:01:32.660Z,857
2023-02-25T15:02:45.597Z,855
2023-02-25T15:03:57.684Z,857
2023-02-25T15:05:10.648Z,856
2023-02-25T15:06:12.734Z,856
2023-02-25T15:07:25.589Z,853
2023-02-25T15:08:37.521Z,851
2023-02-25T15:09:50.563Z,849
2023-02-25T15:10:52.736Z,850
2023-02-25T15:12:05.530Z,848
2023-02-25T15:13:17.523Z,852
2023-02-25T15:14:20.605Z,850
2023-02-25T15:15:32.663Z,851
2023-02-25T15:16:45.721Z,850
2023-02-25T15:17:57.732Z,848
2023-02-25T15:19:00.534Z,846
2023-02-25T15:20:12.546Z,846
2023-02-25T15:21:25.739Z,847
2023-02-25T15:22:28.021Z,845
2023-02-25T15:23:41.072Z,847
2023-02-25T15:24:53.076Z,845
2023-02-25T15:26:06.029Z,844
2023-02-25T15:27:08.137Z,843
2023-02-25T15:28:21.058Z,845
2023-02-25T15:29:33.011Z,846
2023-02-25T15:30:46.132Z,841
2023-02-25T15:32:07.905Z,841
2023-02-25T15:33:01.090Z,838
2023-02-25T15:34:13.101Z,838
2023-02-25T15:35:16.075Z,837
2023-02-25T15:36:28.082Z,839
2023-02-25T15:37:41.057Z,842
2023-02-25T15:38:53.145Z,842
2023-02-25T15:39:56.748Z,842
2023-02-25T15:41:08.870Z,840
2023-02-25T15:42:22.052Z,840
2023-02-25T15:43:24.502Z,840
2023-02-25T15:44:37.596Z,844
2023-02-25T15:45:50.018Z,844
2023-02-25T15:47:03.062Z,843
2023-02-25T15:48:05.288Z,844
2023-02-25T15:49:18.082Z,842
2023-02-25T15:50:30.145Z,844
2023-02-25T15:51:33.077Z,845
2023-02-25T15:52:45.165Z,845
2023-02-25T15:53:58.076Z,846
2023-02-25T15:55:10.159Z,847
2023-02-25T15:56:13.077Z,849